createdAt,value
2022-09-12T00:00:58.741Z,0
2022-09-12T00:03:58.850Z,0
2022-09-12T00:06:58.784Z,0
2022-09-12T00:09:58.691Z,0
2022-09-12T00:12:58.624Z,0
2022-09-12T00:15:59.089Z,0
2022-09-12T00:18:59.536Z,0
2022-09-12T00:21:58.951Z,0
2022-09-12T00:25:00.295Z,0.3333333333333333
2022-09-12T00:27:58.229Z,0
2022-09-12T00:30:59.149Z,0
2022-09-12T00:33:59.108Z,0
2022-09-12T00:36:58.504Z,0
2022-09-12T00:39:58.975Z,0
2022-09-12T00:42:59.280Z,0.6666666666666666
2022-09-12T00:45:59.008Z,0.3333333333333333
2022-09-12T00:48:59.749Z,0
2022-09-12T00:51:58.924Z,0
2022-09-12T00:54:59.470Z,0
2022-09-12T00:57:59.368Z,0
2022-09-12T01:00:58.983Z,0
2022-09-12T01:03:58.873Z,0
2022-09-12T01:06:58.803Z,0
2022-09-12T01:09:58.579Z,0
2022-09-12T01:12:59.442Z,0
2022-09-12T01:15:59.466Z,0
2022-09-12T01:18:59.178Z,0.3333333333333333
2022-09-12T01:21:58.678Z,0
2022-09-12T01:24:58.460Z,0
2022-09-12T01:27:58.975Z,0.3333333333333333
2022-09-12T01:30:59.360Z,0
2022-09-12T01:33:59.028Z,0.3333333333333333
2022-09-12T01:36:59.133Z,0
2022-09-12T01:39:59.295Z,0
2022-09-12T01:42:59.228Z,0
2022-09-12T01:45:58.944Z,0
2022-09-12T01:48:59.230Z,0
2022-09-12T01:51:58.671Z,0
2022-09-12T01:54:58.066Z,0
2022-09-12T01:57:59.264Z,0.3333333333333333
2022-09-12T02:00:59.340Z,0
2022-09-12T02:03:58.540Z,1.3333333333333333
2022-09-12T02:06:58.700Z,0
2022-09-12T02:09:59.816Z,0.3333333333333333
2022-09-12T02:12:58.875Z,0
2022-09-12T02:15:59.175Z,0
2022-09-12T02:18:59.384Z,0
2022-09-12T02:21:59.539Z,0.6666666666666666
2022-09-12T02:24:59.014Z,0
2022-09-12T02:27:59.381Z,0.3333333333333333
2022-09-12T02:30:58.998Z,0
2022-09-12T02:33:58.711Z,0
2022-09-12T02:36:59.030Z,0
2022-09-12T02:39:58.500Z,0
2022-09-12T02:42:58.365Z,0
2022-09-12T02:45:58.957Z,0
2022-09-12T02:48:59.172Z,0
2022-09-12T02:51:58.434Z,0
2022-09-12T02:54:59.539Z,0
2022-09-12T02:57:59.151Z,0
2022-09-12T03:00:59.036Z,0
2022-09-12T03:03:58.973Z,0
2022-09-12T03:06:59.257Z,0
2022-09-12T03:09:59.628Z,0
2022-09-12T03:12:58.801Z,0.3333333333333333
2022-09-12T03:15:59.415Z,0
2022-09-12T03:18:59.297Z,0
2022-09-12T03:21:59.053Z,0
2022-09-12T03:24:59.333Z,0
2022-09-12T03:27:59.137Z,0.3333333333333333
2022-09-12T03:30:58.890Z,0
2022-09-12T03:33:58.634Z,0.3333333333333333
2022-09-12T03:36:58.545Z,0
2022-09-12T03:39:59.107Z,0
2022-09-12T03:42:59.558Z,0
2022-09-12T03:45:58.525Z,0
2022-09-12T03:48:58.673Z,0
2022-09-12T03:51:58.255Z,0
2022-09-12T03:54:59.185Z,0
2022-09-12T03:57:58.801Z,0
2022-09-12T04:00:59.520Z,0
2022-09-12T04:03:58.729Z,0
2022-09-12T04:06:59.150Z,0
2022-09-12T04:09:59.220Z,0
2022-09-12T04:12:58.395Z,0.3333333333333333
2022-09-12T04:15:58.914Z,0
2022-09-12T04:18:59.740Z,0
2022-09-12T04:21:58.018Z,0
2022-09-12T04:24:59.040Z,0
2022-09-12T04:27:58.960Z,0.6666666666666666
2022-09-12T04:30:58.880Z,1.6666666666666667
2022-09-12T04:33:59.066Z,2.3333333333333335
2022-09-12T04:36:58.801Z,5
2022-09-12T04:39:58.972Z,6.333333333333333
2022-09-12T04:42:59.229Z,11
2022-09-12T04:45:59.697Z,15.333333333333334
2022-09-12T04:48:59.580Z,20
2022-09-12T04:51:59.521Z,25.666666666666668
2022-09-12T04:54:58.961Z,32.666666666666664
2022-09-12T04:57:59.229Z,41.333333333333336
2022-09-12T05:01:00.019Z,49
2022-09-12T05:03:59.917Z,58
2022-09-12T05:06:58.746Z,68.33333333333333
2022-09-12T05:09:59.262Z,78
2022-09-12T05:12:59.319Z,89
2022-09-12T05:15:59.610Z,100.33333333333333
2022-09-12T05:18:58.856Z,112.66666666666667
2022-09-12T05:21:59.335Z,128
2022-09-12T05:24:59.205Z,126.66666666666667
2022-09-12T05:27:59.134Z,135.66666666666666
2022-09-12T05:30:59.326Z,145.33333333333334
2022-09-12T05:33:58.848Z,153.66666666666666
2022-09-12T05:36:58.675Z,162.33333333333334
2022-09-12T05:39:59.012Z,169
2022-09-12T05:42:58.732Z,176.66666666666666
2022-09-12T05:45:59.118Z,184.33333333333334
2022-09-12T05:48:59.222Z,191
2022-09-12T05:51:59.862Z,196.33333333333334
2022-09-12T05:54:59.029Z,202.33333333333334
2022-09-12T05:57:59.385Z,209
2022-09-12T06:00:59.469Z,214.66666666666666
2022-09-12T06:03:58.891Z,220
2022-09-12T06:06:59.642Z,224.66666666666666
2022-09-12T06:09:59.694Z,230.66666666666666
2022-09-12T06:12:59.398Z,240.33333333333334
2022-09-12T06:15:59.396Z,242
2022-09-12T06:18:58.692Z,246
2022-09-12T06:21:59.095Z,250.33333333333334
2022-09-12T06:24:59.452Z,255
2022-09-12T06:27:58.566Z,259.3333333333333
2022-09-12T06:30:59.889Z,263.6666666666667
2022-09-12T06:33:59.257Z,268.3333333333333
2022-09-12T06:36:58.666Z,273.3333333333333
2022-09-12T06:39:59.176Z,275.6666666666667
2022-09-12T06:42:59.001Z,280.6666666666667
2022-09-12T06:45:59.238Z,284.3333333333333
2022-09-12T06:48:58.785Z,289
2022-09-12T06:51:59.125Z,293
2022-09-12T06:54:58.896Z,297.3333333333333
2022-09-12T06:57:59.229Z,301
2022-09-12T07:00:59.644Z,304
2022-09-12T07:03:58.912Z,306.3333333333333
2022-09-12T07:06:58.730Z,310
2022-09-12T07:09:58.746Z,313.3333333333333
2022-09-12T07:12:58.681Z,315.3333333333333
2022-09-12T07:15:58.816Z,320.3333333333333
2022-09-12T07:18:58.684Z,321.3333333333333
2022-09-12T07:21:59.117Z,323
2022-09-12T07:24:59.629Z,326
2022-09-12T07:27:58.865Z,327.3333333333333
2022-09-12T07:30:59.417Z,327.6666666666667
2022-09-12T07:33:58.905Z,330.3333333333333
2022-09-12T07:36:59.386Z,332.6666666666667
2022-09-12T07:39:59.132Z,336
2022-09-12T07:42:59.449Z,338.6666666666667
2022-09-12T07:45:59.618Z,341.3333333333333
2022-09-12T07:48:58.829Z,343.3333333333333
2022-09-12T07:51:59.174Z,345.6666666666667
2022-09-12T07:54:59.171Z,348
2022-09-12T07:57:58.397Z,350.6666666666667
2022-09-12T08:00:59.546Z,352.6666666666667
2022-09-12T08:03:58.990Z,355.6666666666667
2022-09-12T08:06:58.776Z,358.6666666666667
2022-09-12T08:09:59.778Z,365.6666666666667
2022-09-12T08:12:59.480Z,365
2022-09-12T08:15:58.842Z,370
2022-09-12T08:18:59.210Z,372.6666666666667
2022-09-12T08:21:59.269Z,375
2022-09-12T08:24:58.719Z,379.6666666666667
2022-09-12T08:27:58.631Z,380.6666666666667
2022-09-12T08:30:59.434Z,385.6666666666667
2022-09-12T08:33:59.749Z,386
2022-09-12T08:36:59.375Z,390
2022-09-12T08:39:59.409Z,392
2022-09-12T08:42:58.530Z,395
2022-09-12T08:45:58.619Z,401.6666666666667
2022-09-12T08:48:58.696Z,405.6666666666667
2022-09-12T08:51:58.751Z,408.3333333333333
2022-09-12T08:54:58.535Z,409.3333333333333
2022-09-12T08:57:58.324Z,415.3333333333333
2022-09-12T09:00:59.197Z,422.3333333333333
2022-09-12T09:03:59.219Z,423.6666666666667
2022-09-12T09:06:59.097Z,427.6666666666667
2022-09-12T09:09:58.601Z,434.3333333333333
2022-09-12T09:12:59.181Z,436.6666666666667
2022-09-12T09:15:59.451Z,443.3333333333333
2022-09-12T09:18:58.865Z,448.6666666666667
2022-09-12T09:21:58.930Z,453
2022-09-12T09:24:59.136Z,462.6666666666667
2022-09-12T09:27:58.646Z,469
2022-09-12T09:30:59.698Z,473.6666666666667
2022-09-12T09:33:58.445Z,475
2022-09-12T09:36:58.948Z,485
2022-09-12T09:39:59.517Z,484.6666666666667
2022-09-12T09:42:58.522Z,483.3333333333333
2022-09-12T09:45:59.502Z,497.6666666666667
2022-09-12T09:48:58.537Z,494
2022-09-12T09:52:00.126Z,499
2022-09-12T09:54:59.361Z,503.6666666666667
2022-09-12T09:57:58.388Z,495.3333333333333
2022-09-12T10:00:59.046Z,514.6666666666666
2022-09-12T10:03:58.881Z,521.6666666666666
2022-09-12T10:06:58.496Z,538
2022-09-12T10:09:59.221Z,547
2022-09-12T10:12:59.206Z,544.3333333333334
2022-09-12T10:15:59.201Z,532
2022-09-12T10:18:59.135Z,579.6666666666666
2022-09-12T10:21:58.616Z,604
2022-09-12T10:24:58.922Z,585.3333333333334
2022-09-12T10:27:59.429Z,599.3333333333334
2022-09-12T10:30:59.564Z,598.6666666666666
2022-09-12T10:33:58.800Z,621
2022-09-12T10:36:59.563Z,623.3333333333334
2022-09-12T10:39:59.117Z,665
2022-09-12T10:42:59.072Z,696.3333333333334
2022-09-12T10:45:59.627Z,718
2022-09-12T10:48:59.035Z,733.6666666666666
2022-09-12T10:51:59.548Z,738
2022-09-12T10:54:58.502Z,753
2022-09-12T10:57:59.527Z,770
2022-09-12T11:00:59.552Z,776.3333333333334
2022-09-12T11:04:15.589Z,800
2022-09-12T11:06:59.417Z,826.6666666666666
2022-09-12T11:09:58.941Z,869
2022-09-12T11:12:58.476Z,871.6666666666666
2022-09-12T11:15:58.542Z,842.3333333333334
2022-09-12T11:18:58.776Z,800.6666666666666
2022-09-12T11:21:59.256Z,793.6666666666666
2022-09-12T11:24:58.386Z,783
2022-09-12T11:27:58.401Z,800
2022-09-12T11:31:00.090Z,794.3333333333334
2022-09-12T11:33:59.377Z,810
2022-09-12T11:36:58.369Z,818.3333333333334
2022-09-12T11:39:59.502Z,852.3333333333334
2022-09-12T11:42:58.587Z,867.6666666666666
2022-09-12T11:45:58.996Z,902.6666666666666
2022-09-12T11:48:58.922Z,915.6666666666666
2022-09-12T11:51:58.413Z,908.6666666666666
2022-09-12T11:54:59.000Z,917.3333333333334
2022-09-12T11:57:58.699Z,924.6666666666666
2022-09-12T12:00:59.161Z,929.6666666666666
2022-09-12T12:03:59.360Z,933.3333333333334
2022-09-12T12:06:58.855Z,931
2022-09-12T12:09:58.787Z,930.6666666666666
2022-09-12T12:12:58.585Z,934
2022-09-12T12:15:59.770Z,924.3333333333334
2022-09-12T12:18:59.353Z,891.6666666666666
2022-09-12T12:21:58.656Z,878
2022-09-12T12:24:58.654Z,886.6666666666666
2022-09-12T12:27:59.477Z,861.6666666666666
2022-09-12T12:30:59.856Z,855
2022-09-12T12:33:59.068Z,853
2022-09-12T12:36:59.209Z,847
2022-09-12T12:39:59.229Z,818
2022-09-12T12:42:59.664Z,829.3333333333334
2022-09-12T12:45:59.157Z,825
2022-09-12T12:48:59.094Z,812.3333333333334
2022-09-12T12:51:59.173Z,780.6666666666666
2022-09-12T12:54:59.281Z,766
2022-09-12T12:57:58.990Z,735.6666666666666
2022-09-12T13:00:58.922Z,698.3333333333334
2022-09-12T13:03:58.933Z,661.3333333333334
2022-09-12T13:06:58.963Z,630.6666666666666
2022-09-12T13:09:59.053Z,614.6666666666666
2022-09-12T13:12:58.761Z,619
2022-09-12T13:15:59.877Z,625.6666666666666
2022-09-12T13:18:58.905Z,578
2022-09-12T13:21:58.693Z,564.6666666666666
2022-09-12T13:24:58.685Z,549.6666666666666
2022-09-12T13:27:58.601Z,544.3333333333334
2022-09-12T13:30:59.811Z,542.3333333333334
2022-09-12T13:33:59.043Z,532.6666666666666
2022-09-12T13:36:58.456Z,536.6666666666666
2022-09-12T13:39:59.862Z,544
2022-09-12T13:42:59.318Z,545.3333333333334
2022-09-12T13:45:59.236Z,539.6666666666666
2022-09-12T13:48:58.616Z,523.3333333333334
2022-09-12T13:51:59.227Z,511.3333333333333
2022-09-12T13:54:59.201Z,500
2022-09-12T13:57:58.577Z,488.6666666666667
2022-09-12T14:00:58.969Z,465.6666666666667
2022-09-12T14:03:58.959Z,454.3333333333333
2022-09-12T14:06:59.592Z,442.3333333333333
2022-09-12T14:09:59.383Z,440.3333333333333
2022-09-12T14:12:58.777Z,435.3333333333333
2022-09-12T14:15:59.983Z,434
2022-09-12T14:18:59.546Z,426.6666666666667
2022-09-12T14:21:59.348Z,414.6666666666667
2022-09-12T14:24:59.010Z,399.3333333333333
2022-09-12T14:27:59.732Z,388.3333333333333
2022-09-12T14:30:59.912Z,380
2022-09-12T14:33:59.323Z,369.6666666666667
2022-09-12T14:36:58.871Z,364.6666666666667
2022-09-12T14:39:59.990Z,359.6666666666667
2022-09-12T14:43:01.151Z,355.3333333333333
2022-09-12T14:45:58.952Z,351
2022-09-12T14:48:59.443Z,345.3333333333333
2022-09-12T14:51:59.527Z,339.3333333333333
2022-09-12T14:54:59.236Z,334.6666666666667
2022-09-12T14:57:59.358Z,323.3333333333333
2022-09-12T15:00:59.295Z,329
2022-09-12T15:03:58.851Z,326
2022-09-12T15:06:59.201Z,323.6666666666667
2022-09-12T15:09:59.271Z,321.6666666666667
2022-09-12T15:12:59.343Z,320.6666666666667
2022-09-12T15:15:59.325Z,317.3333333333333
2022-09-12T15:18:58.984Z,314.3333333333333
2022-09-12T15:21:58.840Z,312
2022-09-12T15:24:58.398Z,304.6666666666667
2022-09-12T15:27:59.037Z,298.3333333333333
2022-09-12T15:30:59.286Z,295
2022-09-12T15:33:59.187Z,288.3333333333333
2022-09-12T15:36:59.325Z,279.6666666666667
2022-09-12T15:39:59.997Z,271
2022-09-12T15:42:59.121Z,264.3333333333333
2022-09-12T15:45:59.717Z,257.3333333333333
2022-09-12T15:48:59.147Z,248.66666666666666
2022-09-12T15:51:59.507Z,242.66666666666666
2022-09-12T15:54:58.979Z,241.33333333333334
2022-09-12T15:57:59.556Z,238.66666666666666
2022-09-12T16:01:00.558Z,235.66666666666666
2022-09-12T16:03:59.793Z,228
2022-09-12T16:07:07.353Z,228.33333333333334
2022-09-12T16:09:59.452Z,219.33333333333334
2022-09-12T16:13:00.043Z,217.33333333333334
2022-09-12T16:15:59.553Z,215.33333333333334
2022-09-12T16:18:59.253Z,209
2022-09-12T16:21:59.061Z,195.33333333333334
2022-09-12T16:24:59.586Z,183.33333333333334
2022-09-12T16:27:59.523Z,171.33333333333334
2022-09-12T16:31:00.264Z,156.33333333333334
2022-09-12T16:33:59.163Z,152.33333333333334
2022-09-12T16:36:59.052Z,154
2022-09-12T16:39:59.359Z,153.33333333333334
2022-09-12T16:42:58.728Z,148.66666666666666
2022-09-12T16:45:59.900Z,143.66666666666666
2022-09-12T16:48:59.504Z,131.66666666666666
2022-09-12T16:51:58.989Z,124.33333333333333
2022-09-12T16:54:59.022Z,121.33333333333333
2022-09-12T16:57:59.722Z,116.66666666666667
2022-09-12T17:00:59.691Z,105
2022-09-12T17:03:58.773Z,98.66666666666667
2022-09-12T17:06:58.726Z,90
2022-09-12T17:09:59.228Z,81
2022-09-12T17:12:58.698Z,76
2022-09-12T17:15:58.676Z,70
2022-09-12T17:18:59.243Z,68.33333333333333
2022-09-12T17:21:58.597Z,61.666666666666664
2022-09-12T17:24:59.302Z,55.666666666666664
2022-09-12T17:27:58.826Z,48
2022-09-12T17:30:58.808Z,40
2022-09-12T17:33:59.176Z,31.333333333333332
2022-09-12T17:36:59.112Z,23.333333333333332
2022-09-12T17:39:59.267Z,16.333333333333332
2022-09-12T17:42:59.028Z,10.666666666666666
2022-09-12T17:45:59.192Z,7
2022-09-12T17:48:59.012Z,3.6666666666666665
2022-09-12T17:51:59.065Z,2.6666666666666665
2022-09-12T17:54:59.046Z,2
2022-09-12T17:57:58.868Z,0.3333333333333333
2022-09-12T18:01:25.144Z,0
2022-09-12T18:03:58.715Z,0
2022-09-12T18:06:59.136Z,0
2022-09-12T18:09:59.186Z,0
2022-09-12T18:12:58.633Z,0
2022-09-12T18:15:59.662Z,0
2022-09-12T18:18:59.568Z,0
2022-09-12T18:21:58.534Z,0
2022-09-12T18:24:58.738Z,0
2022-09-12T18:27:58.486Z,0
2022-09-12T18:30:58.715Z,0.6666666666666666
2022-09-12T18:33:59.244Z,0.3333333333333333
2022-09-12T18:36:58.491Z,0.6666666666666666
2022-09-12T18:39:59.023Z,0.3333333333333333
2022-09-12T18:42:59.657Z,0
2022-09-12T18:45:59.334Z,0
2022-09-12T18:48:58.938Z,0
2022-09-12T18:51:59.282Z,0
2022-09-12T18:54:59.081Z,0
2022-09-12T18:57:58.552Z,0
2022-09-12T19:00:59.996Z,0
2022-09-12T19:03:59.004Z,0
2022-09-12T19:06:59.478Z,0
2022-09-12T19:09:59.188Z,0
2022-09-12T19:12:59.267Z,0
2022-09-12T19:15:59.144Z,0.6666666666666666
2022-09-12T19:18:58.598Z,0
2022-09-12T19:21:58.651Z,0.6666666666666666
2022-09-12T19:24:58.913Z,0
2022-09-12T19:27:58.859Z,0
2022-09-12T19:30:58.582Z,0
2022-09-12T19:33:58.994Z,0
2022-09-12T19:36:58.897Z,0
2022-09-12T19:39:59.519Z,0.3333333333333333
2022-09-12T19:42:58.458Z,0.3333333333333333
2022-09-12T19:45:59.472Z,0
2022-09-12T19:48:59.293Z,0
2022-09-12T19:51:58.703Z,0
2022-09-12T19:54:58.242Z,0
2022-09-12T19:57:59.401Z,0
2022-09-12T20:00:59.219Z,0.6666666666666666
2022-09-12T20:03:59.207Z,0
2022-09-12T20:06:58.758Z,0
2022-09-12T20:09:58.744Z,0
2022-09-12T20:12:58.973Z,0
2022-09-12T20:15:59.342Z,0.6666666666666666
2022-09-12T20:18:58.887Z,0
2022-09-12T20:21:59.039Z,0
2022-09-12T20:24:58.807Z,0
2022-09-12T20:28:00.286Z,0
2022-09-12T20:31:00.041Z,0
2022-09-12T20:33:59.235Z,0
2022-09-12T20:36:59.654Z,0
2022-09-12T20:39:59.155Z,0
2022-09-12T20:42:59.253Z,0
2022-09-12T20:45:58.991Z,0
2022-09-12T20:48:59.481Z,0
2022-09-12T20:51:58.779Z,0
2022-09-12T20:54:58.977Z,0
2022-09-12T20:57:58.917Z,0
2022-09-12T21:00:59.424Z,0
2022-09-12T21:03:59.265Z,0
2022-09-12T21:06:59.251Z,0
2022-09-12T21:09:59.777Z,0
2022-09-12T21:12:59.467Z,0
2022-09-12T21:15:58.635Z,0
2022-09-12T21:18:59.368Z,0
2022-09-12T21:21:59.294Z,1
2022-09-12T21:24:58.570Z,0
2022-09-12T21:27:58.707Z,0
2022-09-12T21:30:59.744Z,0.3333333333333333
2022-09-12T21:33:58.855Z,0
2022-09-12T21:36:58.852Z,0
2022-09-12T21:39:58.911Z,0.3333333333333333
2022-09-12T21:42:58.777Z,0
2022-09-12T21:45:58.618Z,0
2022-09-12T21:48:58.695Z,0
2022-09-12T21:51:58.894Z,0
2022-09-12T21:54:58.804Z,0.3333333333333333
2022-09-12T21:57:59.100Z,0
2022-09-12T22:00:59.755Z,0
2022-09-12T22:03:59.367Z,0
2022-09-12T22:06:58.457Z,0
2022-09-12T22:09:59.428Z,0
2022-09-12T22:12:59.287Z,0
2022-09-12T22:15:58.644Z,0.3333333333333333
2022-09-12T22:18:58.366Z,0
2022-09-12T22:21:58.268Z,0
2022-09-12T22:24:58.688Z,0
2022-09-12T22:27:58.732Z,0
2022-09-12T22:30:59.417Z,0
2022-09-12T22:33:59.231Z,0.3333333333333333
2022-09-12T22:36:59.004Z,0
2022-09-12T22:40:00.007Z,0
2022-09-12T22:42:58.879Z,0
2022-09-12T22:45:58.737Z,0
2022-09-12T22:48:59.065Z,0
2022-09-12T22:51:58.843Z,0
2022-09-12T22:54:58.964Z,0
2022-09-12T22:57:58.727Z,0
2022-09-12T23:00:59.255Z,0
2022-09-12T23:03:58.251Z,0
2022-09-12T23:06:58.424Z,0
2022-09-12T23:09:58.829Z,0.3333333333333333
2022-09-12T23:12:58.864Z,0
2022-09-12T23:15:59.195Z,0
2022-09-12T23:18:58.616Z,0.6666666666666666
2022-09-12T23:21:58.442Z,0
2022-09-12T23:24:58.591Z,0
2022-09-12T23:27:58.678Z,0
2022-09-12T23:31:14.875Z,0
2022-09-12T23:33:58.214Z,0
2022-09-12T23:36:58.341Z,0
2022-09-12T23:39:59.518Z,0
2022-09-12T23:42:58.144Z,0
2022-09-12T23:45:59.082Z,0
2022-09-12T23:48:58.456Z,0
2022-09-12T23:51:59.369Z,0
2022-09-12T23:54:58.963Z,0
2022-09-12T23:57:58.948Z,0
